Time;durP1;ratioP1;P1;durP2;ratioP2;P2;SDS_P1;SDS_P2;PMS_P1;PMS_P2;Temp;Humidity;BMP_temperature;BMP_pressure;BME280_temperature;BME280_humidity;BME280_pressure;Samples;Min_cycle;Max_cycle;Signal;HPM_P1;HPM_P2
2022/08/29 00:01:57;;;;;;;2.72;1.50;;;18.50;70.80;;;;;;4932126;29;20182;-72
2022/08/29 00:04:25;;;;;;;2.10;1.20;;;18.50;70.90;;;;;;4944273;29;20310;-76
2022/08/29 00:06:51;;;;;;;2.10;1.38;;;18.40;71.50;;;;;;4931405;29;20190;-75
2022/08/29 00:09:16;;;;;;;2.25;1.30;;;18.40;71.50;;;;;;4947954;29;20205;-75
2022/08/29 00:11:44;;;;;;;2.28;1.27;;;18.30;71.70;;;;;;4925553;29;20206;-74
2022/08/29 00:14:10;;;;;;;2.05;1.30;;;18.30;71.80;;;;;;4928235;29;20193;-75
2022/08/29 00:16:40;;;;;;;3.33;1.70;;;18.20;71.90;;;;;;4932457;29;20178;-75
2022/08/29 00:19:06;;;;;;;3.97;1.45;;;18.20;72.20;;;;;;4944661;29;20190;-72
2022/08/29 00:21:31;;;;;;;5.00;1.40;;;18.20;72.40;;;;;;4946179;29;20246;-75
2022/08/29 00:23:57;;;;;;;2.97;1.33;;;18.10;72.50;;;;;;4931257;29;20198;-74
2022/08/29 00:26:23;;;;;;;2.60;1.50;;;18.10;72.80;;;;;;4931164;29;20218;-75
2022/08/29 00:28:49;;;;;;;3.33;1.40;;;18.10;73.30;;;;;;4945949;29;20174;-72
2022/08/29 00:31:15;;;;;;;3.15;1.50;;;18.00;73.40;;;;;;4943340;29;20213;-76
2022/08/29 00:33:43;;;;;;;3.35;1.48;;;18.00;74.40;;;;;;4925318;29;20178;-75
2022/08/29 00:36:11;;;;;;;2.90;1.20;;;18.00;74.20;;;;;;4945414;29;20190;-75
2022/08/29 00:38:39;;;;;;;3.05;1.30;;;17.90;74.40;;;;;;4928721;29;20334;-75
2022/08/29 00:41:08;;;;;;;2.47;1.55;;;17.90;74.20;;;;;;4947793;29;20209;-76
2022/08/29 00:43:35;;;;;;;2.13;1.30;;;17.90;74.50;;;;;;4928445;29;20200;-76
2022/08/29 00:46:25;;;;;;;2.28;1.20;;;17.90;75.50;;;;;;4945864;29;20194;-76
2022/08/29 00:49:04;;;;;;;3.10;1.30;;;17.90;76.40;;;;;;4913506;29;20193;-71
2022/08/29 00:51:30;;;;;;;1.88;1.15;;;17.90;76.10;;;;;;4919040;29;20179;-76
2022/08/29 00:54:03;;;;;;;1.58;1.20;;;17.90;75.30;;;;;;4941107;29;20186;-75
2022/08/29 00:56:32;;;;;;;2.13;1.40;;;17.80;76.10;;;;;;4945465;29;20197;-76
2022/08/29 00:59:01;;;;;;;2.92;1.40;;;17.80;75.70;;;;;;4941132;29;20199;-76
2022/08/29 01:01:27;;;;;;;2.50;1.48;;;17.80;76.10;;;;;;4945643;29;20224;-75
2022/08/29 01:03:55;;;;;;;3.03;1.60;;;17.70;76.10;;;;;;4927999;29;20213;-75
2022/08/29 01:06:27;;;;;;;1.80;1.23;;;17.70;77.00;;;;;;4926862;29;20257;-75
2022/08/29 01:08:54;;;;;;;2.33;1.50;;;17.60;77.50;;;;;;4928122;29;20206;-74
2022/08/29 01:14:06;;;;;;;2.17;1.20;;;17.50;77.10;;;;;;4928288;29;20217;-74
2022/08/29 01:16:32;;;;;;;2.13;1.45;;;17.50;77.50;;;;;;4946385;29;20182;-75
2022/08/29 01:19:09;;;;;;;2.05;1.48;;;17.40;77.60;;;;;;4946345;29;20212;-75
2022/08/29 01:21:52;;;;;;;1.77;1.20;;;17.40;78.50;;;;;;4923174;29;20206;-75
2022/08/29 01:24:40;;;;;;;2.75;1.48;;;17.40;79.70;;;;;;4923931;29;20221;-75
2022/08/29 01:27:09;;;;;;;2.15;1.35;;;17.40;80.30;;;;;;4929017;29;20194;-76
2022/08/29 01:29:37;;;;;;;2.72;1.40;;;17.40;78.80;;;;;;4920434;29;20170;-75
2022/08/29 01:32:05;;;;;;;2.10;1.40;;;17.40;79.10;;;;;;4944184;29;20185;-73
2022/08/29 01:34:31;;;;;;;1.90;1.10;;;17.40;79.90;;;;;;4930017;29;20216;-75
2022/08/29 01:37:11;;;;;;;4.55;1.50;;;17.40;79.70;;;;;;4942506;29;21546;-74
2022/08/29 01:39:42;;;;;;;1.65;1.17;;;17.40;81.00;;;;;;4939844;29;20227;-70
2022/08/29 01:42:10;;;;;;;2.97;1.10;;;17.40;80.60;;;;;;4915970;29;20305;-75
2022/08/29 01:44:37;;;;;;;2.45;1.20;;;17.30;80.20;;;;;;4921799;29;20206;-72
2022/08/29 01:47:10;;;;;;;1.80;1.20;;;17.30;80.40;;;;;;4922679;29;20284;-75
2022/08/29 01:49:36;;;;;;;2.72;1.30;;;17.30;80.70;;;;;;4924773;29;20198;-75
2022/08/29 01:52:06;;;;;;;2.92;1.50;;;17.30;80.60;;;;;;4929211;29;20201;-74
2022/08/29 01:54:34;;;;;;;3.00;1.35;;;17.30;80.80;;;;;;4925946;29;20237;-74
2022/08/29 01:57:01;;;;;;;2.45;1.30;;;17.30;80.70;;;;;;4942459;29;20186;-74
2022/08/29 01:59:27;;;;;;;2.95;1.52;;;17.30;80.80;;;;;;4922787;29;20205;-74
2022/08/29 02:02:06;;;;;;;2.75;1.10;;;17.30;81.00;;;;;;4944381;29;20201;-75
2022/08/29 02:04:32;;;;;;;1.85;1.35;;;17.20;81.40;;;;;;4940786;29;20264;-75
2022/08/29 02:06:58;;;;;;;1.92;1.40;;;17.20;80.90;;;;;;4928054;29;20235;-75
2022/08/29 02:09:25;;;;;;;3.13;1.27;;;17.20;81.00;;;;;;4922020;29;20225;-75
2022/08/29 02:11:53;;;;;;;3.53;1.60;;;17.10;81.40;;;;;;4933161;29;20167;-75
2022/08/29 02:14:19;;;;;;;3.28;1.30;;;17.10;81.60;;;;;;4936624;29;20182;-74
2022/08/29 02:16:48;;;;;;;1.70;1.27;;;17.10;81.60;;;;;;4939207;29;20201;-74
2022/08/29 02:19:14;;;;;;;1.55;1.30;;;17.10;82.20;;;;;;4929661;29;20295;-78
2022/08/29 02:21:40;;;;;;;1.65;1.13;;;17.00;82.00;;;;;;4941351;29;20502;-77
2022/08/29 02:24:09;;;;;;;2.30;1.40;;;17.00;82.00;;;;;;4946497;29;20205;-75
2022/08/29 02:26:37;;;;;;;2.60;1.50;;;17.00;82.10;;;;;;4951907;29;20190;-73
2022/08/29 02:29:08;;;;;;;2.45;1.42;;;17.00;82.50;;;;;;4945214;29;20183;-76
2022/08/29 02:31:35;;;;;;;2.78;1.30;;;16.90;82.50;;;;;;4925483;29;20253;-75
2022/08/29 02:34:01;;;;;;;3.53;1.60;;;16.90;82.70;;;;;;4950237;29;20201;-74
2022/08/29 02:36:29;;;;;;;2.00;1.30;;;16.90;83.00;;;;;;4926124;29;20199;-74
2022/08/29 02:38:59;;;;;;;2.17;1.38;;;16.80;83.70;;;;;;4936285;29;20396;-74
2022/08/29 02:41:30;;;;;;;2.53;1.20;;;16.80;83.70;;;;;;4945713;29;20191;-76
2022/08/29 02:43:58;;;;;;;3.15;1.50;;;16.80;84.10;;;;;;4934031;29;20241;-78
2022/08/29 02:46:27;;;;;;;1.92;1.40;;;16.70;84.50;;;;;;4930264;29;20313;-74
2022/08/29 02:48:53;;;;;;;3.25;1.70;;;16.70;84.20;;;;;;4927300;29;20170;-74
2022/08/29 02:51:26;;;;;;;2.13;1.60;;;16.60;84.30;;;;;;4950062;29;20233;-75
2022/08/29 02:53:53;;;;;;;3.78;1.55;;;16.60;85.80;;;;;;4945947;29;20215;-67
2022/08/29 02:56:18;;;;;;;2.80;1.40;;;16.50;84.80;;;;;;4942893;29;20189;-77
2022/08/29 02:58:49;;;;;;;2.13;1.40;;;16.50;85.30;;;;;;4939299;29;20218;-73
2022/08/29 03:01:16;;;;;;;3.70;1.58;;;16.40;85.90;;;;;;4932012;29;20181;-72
2022/08/29 03:03:41;;;;;;;3.05;1.45;;;16.40;86.00;;;;;;4945513;29;20182;-77
2022/08/29 03:06:07;;;;;;;3.40;1.58;;;16.30;86.40;;;;;;4928450;29;20182;-75
2022/08/29 03:08:33;;;;;;;5.00;1.60;;;16.30;86.90;;;;;;4925742;29;20292;-78
2022/08/29 03:10:59;;;;;;;3.10;1.50;;;16.30;87.10;;;;;;4935690;29;20250;-74
2022/08/29 03:13:25;;;;;;;2.10;1.25;;;16.20;87.10;;;;;;4921569;29;20201;-78
2022/08/29 03:15:50;;;;;;;2.92;1.38;;;16.10;87.30;;;;;;4945394;29;20171;-72
2022/08/29 03:18:17;;;;;;;3.83;1.40;;;16.20;87.80;;;;;;4930544;29;20202;-73
2022/08/29 03:20:42;;;;;;;3.40;1.65;;;16.20;88.10;;;;;;4926752;29;20281;-78
2022/08/29 03:23:08;;;;;;;3.60;1.67;;;16.10;88.50;;;;;;4943604;29;20200;-73
2022/08/29 03:25:34;;;;;;;2.67;1.60;;;16.10;88.90;;;;;;4919841;29;20206;-71
2022/08/29 03:28:00;;;;;;;2.50;1.58;;;16.10;89.60;;;;;;4930997;29;20189;-74
2022/08/29 03:30:28;;;;;;;2.20;1.40;;;16.10;90.20;;;;;;4945089;29;20186;-74
2022/08/29 03:32:56;;;;;;;3.13;1.70;;;16.00;90.50;;;;;;4944939;28;20237;-73
2022/08/29 03:35:22;;;;;;;2.65;1.60;;;16.00;90.70;;;;;;4950275;29;20174;-72
2022/08/29 03:37:51;;;;;;;14.05;9.50;;;16.00;90.60;;;;;;4947735;29;20186;-78
2022/08/29 03:40:18;;;;;;;10.68;8.02;;;15.90;90.90;;;;;;4944020;29;20246;-72
2022/08/29 03:42:49;;;;;;;7.00;4.20;;;15.90;90.90;;;;;;4922166;29;20179;-76
2022/08/29 03:45:18;;;;;;;4.80;3.38;;;15.90;91.30;;;;;;4931372;29;20209;-75
2022/08/29 03:47:44;;;;;;;3.70;2.40;;;15.90;91.20;;;;;;4948261;29;20180;-76
2022/08/29 03:50:14;;;;;;;2.78;2.10;;;15.80;90.90;;;;;;4950864;29;20410;-75
2022/08/29 03:52:43;;;;;;;2.17;1.70;;;15.90;91.00;;;;;;4947776;29;20169;-71
2022/08/29 03:55:10;;;;;;;5.60;1.98;;;15.80;91.20;;;;;;4936734;29;20210;-78
2022/08/29 03:57:40;;;;;;;4.85;1.67;;;15.80;91.20;;;;;;4920670;29;20206;-78
2022/08/29 04:00:14;;;;;;;3.13;1.70;;;15.80;91.50;;;;;;4933059;29;20198;-76
2022/08/29 04:02:41;;;;;;;3.33;1.58;;;15.80;91.60;;;;;;4944160;29;20202;-70
2022/08/29 04:05:07;;;;;;;6.00;4.45;;;15.80;91.60;;;;;;4947741;29;20202;-76
2022/08/29 04:07:40;;;;;;;9.00;6.32;;;15.80;91.80;;;;;;4929312;29;20207;-74
2022/08/29 04:10:10;;;;;;;6.75;3.30;;;15.80;92.40;;;;;;4947347;29;20196;-80
2022/08/29 04:12:38;;;;;;;5.20;3.40;;;15.80;92.00;;;;;;4943146;29;20174;-75
2022/08/29 04:15:06;;;;;;;4.60;3.25;;;15.80;92.00;;;;;;4944055;29;20190;-72
2022/08/29 04:17:33;;;;;;;3.08;2.30;;;15.70;92.10;;;;;;4950553;29;20215;-75
2022/08/29 04:19:58;;;;;;;2.53;1.90;;;15.70;92.20;;;;;;4933535;28;20202;-74
2022/08/29 04:22:24;;;;;;;3.67;1.92;;;15.70;92.30;;;;;;4952153;29;20206;-76
2022/08/29 04:24:54;;;;;;;3.38;1.83;;;15.70;92.40;;;;;;4935497;29;20228;-74
2022/08/29 04:27:22;;;;;;;2.38;1.50;;;15.70;92.80;;;;;;4936317;29;20201;-75
2022/08/29 04:29:53;;;;;;;4.18;1.73;;;15.70;92.60;;;;;;4948900;29;20209;-76
2022/08/29 04:32:23;;;;;;;2.85;1.70;;;15.70;92.60;;;;;;4937770;29;20179;-77
2022/08/29 04:34:54;;;;;;;5.85;1.40;;;15.70;93.00;;;;;;4956269;29;20189;-73
2022/08/29 04:37:22;;;;;;;4.65;1.67;;;15.70;93.10;;;;;;4950500;29;20242;-72
2022/08/29 04:40:07;;;;;;;2.78;1.52;;;15.70;92.70;;;;;;4924550;29;20186;-78
2022/08/29 04:42:36;;;;;;;2.45;1.50;;;15.60;93.40;;;;;;4947316;29;20475;-76
2022/08/29 04:45:05;;;;;;;3.63;1.50;;;15.60;93.00;;;;;;4949029;29;20198;-77
2022/08/29 04:47:31;;;;;;;3.33;2.00;;;15.60;92.90;;;;;;4940120;29;20182;-78
2022/08/29 04:49:58;;;;;;;2.72;1.58;;;15.60;93.00;;;;;;4935910;29;20265;-74
2022/08/29 04:52:27;;;;;;;2.83;1.70;;;15.60;93.10;;;;;;4935983;29;20220;-75
2022/08/29 04:54:56;;;;;;;2.05;1.30;;;15.50;93.40;;;;;;4952382;29;20197;-76
2022/08/29 04:57:23;;;;;;;3.65;1.60;;;15.50;93.40;;;;;;4947302;29;20226;-78
2022/08/29 04:59:58;;;;;;;6.85;1.60;;;15.50;93.30;;;;;;4953317;28;20329;-78
2022/08/29 05:02:26;;;;;;;2.30;1.42;;;15.40;94.00;;;;;;4953034;29;20216;-78
2022/08/29 05:04:55;;;;;;;2.45;1.40;;;15.40;93.60;;;;;;4948805;29;20229;-79
2022/08/29 05:07:28;;;;;;;2.50;1.35;;;15.40;93.70;;;;;;4925330;29;20174;-72
2022/08/29 05:10:01;;;;;;;3.35;1.58;;;15.40;94.10;;;;;;4936475;29;20197;-77
2022/08/29 05:12:30;;;;;;;3.00;1.60;;;15.30;94.10;;;;;;4931850;29;20174;-74
2022/08/29 05:14:56;;;;;;;1.92;1.20;;;15.30;94.30;;;;;;4950626;29;20201;-70
2022/08/29 05:17:25;;;;;;;3.10;1.60;;;15.30;94.00;;;;;;4949088;29;20178;-74
2022/08/29 05:19:55;;;;;;;2.38;1.73;;;15.30;94.30;;;;;;4948530;29;20179;-76
2022/08/29 05:22:21;;;;;;;2.65;1.50;;;15.30;94.40;;;;;;4923884;29;20171;-79
2022/08/29 05:24:48;;;;;;;2.38;1.70;;;15.30;94.50;;;;;;4957143;29;20346;-71
2022/08/29 05:27:20;;;;;;;4.95;2.00;;;15.30;94.60;;;;;;4951670;29;20177;-79
2022/08/29 05:29:50;;;;;;;4.50;1.90;;;15.30;95.00;;;;;;4949722;29;20170;-72
2022/08/29 05:32:20;;;;;;;5.00;1.90;;;15.30;94.80;;;;;;4952287;29;20205;-79
2022/08/29 05:34:47;;;;;;;3.00;1.95;;;15.30;95.00;;;;;;4936825;29;20208;-76
2022/08/29 05:37:15;;;;;;;3.88;2.13;;;15.30;94.80;;;;;;4939429;29;20187;-80
2022/08/29 05:39:41;;;;;;;4.20;2.13;;;15.30;94.90;;;;;;4914874;29;20203;-76
2022/08/29 05:42:08;;;;;;;3.70;2.00;;;15.30;94.90;;;;;;4936343;28;20205;-80
2022/08/29 05:44:35;;;;;;;5.28;2.20;;;15.30;95.00;;;;;;4922112;29;20209;-79
2022/08/29 05:47:05;;;;;;;4.13;2.22;;;15.20;94.90;;;;;;4917281;29;20193;-77
2022/08/29 05:49:38;;;;;;;3.92;1.92;;;15.20;95.00;;;;;;4920444;29;20209;-79
2022/08/29 05:52:04;;;;;;;4.03;2.17;;;15.20;95.40;;;;;;4939644;29;20210;-79
2022/08/29 05:54:36;;;;;;;5.25;2.35;;;15.20;95.30;;;;;;4938345;29;20261;-80
2022/08/29 05:57:03;;;;;;;8.38;2.20;;;15.20;95.60;;;;;;4936692;29;20186;-77
2022/08/29 05:59:29;;;;;;;5.07;1.98;;;15.20;95.60;;;;;;4924061;29;20206;-80
2022/08/29 06:01:55;;;;;;;5.50;2.50;;;15.20;95.70;;;;;;4935374;29;20209;-79
2022/08/29 06:04:21;;;;;;;4.68;1.92;;;15.20;95.90;;;;;;4940263;29;20213;-79
2022/08/29 06:06:49;;;;;;;3.67;2.22;;;15.30;96.10;;;;;;4927407;29;20174;-77
2022/08/29 06:09:17;;;;;;;5.13;2.40;;;15.40;96.30;;;;;;4933990;29;20182;-73
2022/08/29 06:11:47;;;;;;;4.28;2.30;;;15.40;96.50;;;;;;4949191;29;20246;-76
2022/08/29 06:14:18;;;;;;;3.30;1.98;;;15.50;96.90;;;;;;4922051;29;20210;-79
2022/08/29 06:16:44;;;;;;;4.00;2.28;;;15.50;97.00;;;;;;4927227;29;20263;-79
2022/08/29 06:19:10;;;;;;;4.65;2.25;;;15.60;96.90;;;;;;4941292;29;20190;-79
2022/08/29 06:21:41;;;;;;;5.63;2.65;;;15.70;97.10;;;;;;4954397;29;20177;-78
2022/08/29 06:24:07;;;;;;;6.50;2.28;;;15.80;97.30;;;;;;4948362;29;20217;-71
2022/08/29 06:26:33;;;;;;;4.50;2.50;;;15.90;97.40;;;;;;4933974;29;20185;-79
2022/08/29 06:28:59;;;;;;;3.78;2.30;;;16.00;97.60;;;;;;4930378;29;20179;-80
2022/08/29 06:31:27;;;;;;;5.47;2.70;;;16.10;97.80;;;;;;4926438;29;20200;-78
2022/08/29 06:33:58;;;;;;;5.97;2.88;;;16.20;98.00;;;;;;4930965;29;20309;-75
2022/08/29 06:36:25;;;;;;;7.82;2.70;;;16.30;98.30;;;;;;4949364;28;20253;-80
2022/08/29 06:38:51;;;;;;;4.35;2.25;;;16.40;98.40;;;;;;4942064;29;20185;-76
2022/08/29 06:41:17;;;;;;;4.53;2.28;;;16.50;98.50;;;;;;4950189;29;20255;-76
2022/08/29 06:43:43;;;;;;;4.85;2.30;;;16.60;98.60;;;;;;4947390;29;20195;-79
2022/08/29 06:46:21;;;;;;;4.00;2.47;;;16.70;98.70;;;;;;4910675;29;20206;-78
2022/08/29 06:48:47;;;;;;;3.78;2.33;;;16.80;99.10;;;;;;4929017;29;20255;-73
2022/08/29 06:51:20;;;;;;;4.55;2.40;;;16.90;98.80;;;;;;4917488;29;20203;-78
2022/08/29 06:53:46;;;;;;;5.43;2.22;;;16.90;98.90;;;;;;4926146;29;20174;-79
2022/08/29 06:56:14;;;;;;;3.08;2.13;;;17.00;98.70;;;;;;4942897;29;20246;-72
2022/08/29 06:58:40;;;;;;;3.67;1.70;;;17.10;98.80;;;;;;4951385;29;20232;-71
2022/08/29 07:01:07;;;;;;;5.55;2.22;;;17.10;98.40;;;;;;4950479;29;20189;-79
2022/08/29 07:03:33;;;;;;;2.90;1.90;;;17.10;98.30;;;;;;4941519;29;20182;-78
2022/08/29 07:06:01;;;;;;;4.57;2.40;;;17.20;98.40;;;;;;4949187;29;20198;-73
2022/08/29 07:08:29;;;;;;;4.00;2.10;;;17.20;98.70;;;;;;4949917;29;20225;-77
2022/08/29 07:10:55;;;;;;;6.00;2.20;;;17.20;98.50;;;;;;4942193;29;20217;-76
2022/08/29 07:13:20;;;;;;;4.00;2.35;;;17.20;98.60;;;;;;4946120;29;20237;-75
2022/08/29 07:15:46;;;;;;;2.75;1.73;;;17.20;98.60;;;;;;4952431;29;20209;-78
2022/08/29 07:18:14;;;;;;;6.10;2.35;;;17.20;98.60;;;;;;4946789;29;20178;-80
2022/08/29 07:20:40;;;;;;;2.90;1.70;;;17.20;98.70;;;;;;4943431;29;20187;-77
2022/08/29 07:23:06;;;;;;;3.72;2.10;;;17.20;98.80;;;;;;4948058;28;20230;-79
2022/08/29 07:25:32;;;;;;;2.83;1.70;;;17.20;99.20;;;;;;4942361;29;20217;-78
2022/08/29 07:28:01;;;;;;;4.13;1.90;;;17.20;98.90;;;;;;4940237;29;20170;-79
2022/08/29 07:30:30;;;;;;;4.05;1.83;;;17.30;98.90;;;;;;4947586;29;20204;-70
2022/08/29 07:32:56;;;;;;;4.82;2.08;;;17.30;98.80;;;;;;4952272;28;20224;-72
2022/08/29 07:35:23;;;;;;;3.10;2.10;;;17.40;98.90;;;;;;4948101;29;20206;-78
2022/08/29 07:37:49;;;;;;;2.50;1.73;;;17.40;98.90;;;;;;4943435;29;20182;-72
2022/08/29 07:40:17;;;;;;;3.15;2.05;;;17.50;98.80;;;;;;4948137;29;20189;-77
2022/08/29 07:42:48;;;;;;;5.05;2.13;;;17.50;98.80;;;;;;4949648;28;20190;-77
2022/08/29 07:45:16;;;;;;;4.35;1.80;;;17.60;98.90;;;;;;4947401;28;20217;-78
2022/08/29 07:47:45;;;;;;;5.97;2.10;;;17.60;98.70;;;;;;4933728;29;20296;-78
2022/08/29 07:50:12;;;;;;;3.10;1.92;;;17.70;98.70;;;;;;4951578;29;20178;-74
2022/08/29 07:52:40;;;;;;;5.63;2.00;;;17.70;98.80;;;;;;4954049;29;20178;-79
2022/08/29 07:55:09;;;;;;;3.30;1.80;;;17.70;98.80;;;;;;4947199;29;20210;-76
2022/08/29 07:57:34;;;;;;;3.25;1.90;;;17.80;98.80;;;;;;4947238;29;20211;-78
2022/08/29 08:00:03;;;;;;;3.65;2.00;;;17.90;98.90;;;;;;4927169;29;20198;-79
2022/08/29 08:02:28;;;;;;;4.78;2.05;;;17.90;98.90;;;;;;4932021;29;20182;-78
2022/08/29 08:04:54;;;;;;;2.78;1.83;;;18.00;98.90;;;;;;4948639;29;20208;-76
2022/08/29 08:07:20;;;;;;;2.95;1.88;;;18.00;98.90;;;;;;4951465;29;20205;-77
2022/08/29 08:09:48;;;;;;;5.70;1.90;;;18.10;98.90;;;;;;4930041;29;20246;-79
2022/08/29 08:12:13;;;;;;;3.70;2.08;;;18.20;98.90;;;;;;4941412;29;20197;-77
2022/08/29 08:14:39;;;;;;;4.45;2.00;;;18.30;98.90;;;;;;4930173;29;20179;-76
2022/08/29 08:17:05;;;;;;;2.72;1.90;;;18.40;98.80;;;;;;4950128;29;20254;-75
2022/08/29 08:19:30;;;;;;;4.70;2.05;;;18.50;98.70;;;;;;4942568;28;20214;-79
2022/08/29 08:21:57;;;;;;;2.70;1.88;;;18.50;98.50;;;;;;4936456;29;20174;-74
2022/08/29 08:24:23;;;;;;;2.88;1.90;;;18.60;98.40;;;;;;4933113;29;20201;-73
2022/08/29 08:26:49;;;;;;;3.67;1.77;;;18.70;98.40;;;;;;4947610;29;20202;-76
2022/08/29 08:29:17;;;;;;;3.38;1.70;;;18.80;98.20;;;;;;4946344;29;20182;-73
2022/08/29 08:31:45;;;;;;;3.78;1.88;;;18.80;98.00;;;;;;4921635;29;20179;-75
2022/08/29 08:34:14;;;;;;;4.70;1.75;;;18.90;98.00;;;;;;4953580;28;20185;-78
2022/08/29 08:36:44;;;;;;;4.63;1.98;;;19.00;98.10;;;;;;4930991;29;20202;-78
2022/08/29 08:39:15;;;;;;;4.43;2.00;;;19.00;98.10;;;;;;4948728;29;20194;-74
2022/08/29 08:41:50;;;;;;;4.07;2.05;;;19.10;98.10;;;;;;4952197;29;20178;-75
2022/08/29 08:44:23;;;;;;;2.55;1.75;;;19.20;97.80;;;;;;4952714;29;20235;-79
2022/08/29 08:47:01;;;;;;;4.45;1.83;;;19.40;97.80;;;;;;4936764;29;20178;-79
2022/08/29 08:49:53;;;;;;;2.97;1.77;;;19.50;97.60;;;;;;4934741;29;20178;-69
2022/08/29 08:52:28;;;;;;;2.70;1.63;;;19.60;97.20;;;;;;4936405;29;20233;-79
2022/08/29 08:55:07;;;;;;;4.80;1.85;;;19.70;97.20;;;;;;4948487;29;20245;-70
2022/08/29 08:57:43;;;;;;;4.35;1.70;;;19.80;97.00;;;;;;4934651;29;20192;-78
2022/08/29 09:00:12;;;;;;;3.83;1.80;;;19.90;97.00;;;;;;4951503;29;20201;-75
2022/08/29 09:02:44;;;;;;;2.45;1.58;;;20.00;96.90;;;;;;4946377;29;20182;-79
2022/08/29 09:05:31;;;;;;;3.90;2.08;;;20.10;96.70;;;;;;4933033;29;20210;-71
2022/08/29 09:08:00;;;;;;;3.47;1.83;;;20.10;96.50;;;;;;4939226;29;20193;-70
2022/08/29 09:10:33;;;;;;;2.50;1.50;;;20.20;96.50;;;;;;4932445;29;20234;-79
2022/08/29 09:13:02;;;;;;;2.83;1.83;;;20.30;96.10;;;;;;4949074;29;20186;-73
2022/08/29 09:15:41;;;;;;;2.97;1.80;;;20.40;96.40;;;;;;4955866;28;20290;-75
2022/08/29 09:18:22;;;;;;;3.22;1.60;;;20.50;96.00;;;;;;4929329;29;20193;-76
2022/08/29 09:20:51;;;;;;;2.95;1.60;;;20.60;96.00;;;;;;4930713;29;20305;-79
2022/08/29 09:23:19;;;;;;;4.07;1.95;;;20.80;96.10;;;;;;4935214;29;20178;-76
2022/08/29 09:25:45;;;;;;;2.28;1.65;;;20.90;95.80;;;;;;4931432;28;20202;-73
2022/08/29 09:28:13;;;;;;;2.95;1.63;;;20.90;95.60;;;;;;4924234;29;20266;-73
2022/08/29 09:30:45;;;;;;;2.65;1.50;;;21.00;95.60;;;;;;4950367;29;20205;-74
2022/08/29 09:33:14;;;;;;;3.78;1.60;;;21.10;94.90;;;;;;4950878;29;20198;-78
2022/08/29 09:35:51;;;;;;;2.72;1.42;;;21.20;95.20;;;;;;4938279;29;20203;-73
2022/08/29 09:38:17;;;;;;;3.25;1.77;;;21.30;94.60;;;;;;4954542;29;20178;-71
2022/08/29 09:40:48;;;;;;;3.40;1.80;;;21.40;94.70;;;;;;4947218;29;20186;-69
2022/08/29 09:43:22;;;;;;;2.70;1.65;;;21.50;94.70;;;;;;4948093;29;20242;-74
2022/08/29 09:46:10;;;;;;;2.42;1.40;;;21.60;94.40;;;;;;4935097;29;20190;-72
2022/08/29 09:49:11;;;;;;;2.75;1.77;;;21.70;93.90;;;;;;4943495;28;20331;-75
2022/08/29 09:51:40;;;;;;;2.22;1.42;;;21.80;94.10;;;;;;4954412;29;20189;-71
2022/08/29 09:54:17;;;;;;;4.90;1.55;;;21.90;93.90;;;;;;4935061;29;20182;-78
2022/08/29 09:56:57;;;;;;;2.63;1.50;;;22.10;93.30;;;;;;4934332;29;20221;-70
2022/08/29 09:59:30;;;;;;;2.58;1.42;;;22.10;93.10;;;;;;4916514;29;20186;-79
2022/08/29 10:02:20;;;;;;;2.58;1.60;;;22.20;93.30;;;;;;4935476;28;20269;-73
2022/08/29 10:04:56;;;;;;;3.95;1.88;;;22.40;92.80;;;;;;4949326;29;20210;-76
2022/08/29 10:07:35;;;;;;;2.65;1.50;;;22.80;92.60;;;;;;4936440;29;20249;-71
2022/08/29 10:10:00;;;;;;;3.75;1.58;;;23.30;92.30;;;;;;4935967;29;20170;-76
2022/08/29 10:13:01;;;;;;;2.63;1.42;;;23.80;91.90;;;;;;4946881;29;20186;-77
2022/08/29 10:15:38;;;;;;;2.17;1.50;;;24.40;90.80;;;;;;4945272;29;20207;-74
2022/08/29 10:18:41;;;;;;;2.90;1.58;;;25.10;90.70;;;;;;4940906;29;20186;-72
2022/08/29 10:21:16;;;;;;;2.63;1.48;;;25.70;86.20;;;;;;4932167;29;20178;-69
2022/08/29 10:23:48;;;;;;;2.45;1.40;;;26.20;88.90;;;;;;4941508;29;20198;-77
2022/08/29 10:26:55;;;;;;;2.88;1.30;;;26.70;86.30;;;;;;4951979;29;20229;-72
2022/08/29 10:29:57;;;;;;;2.92;1.38;;;27.20;81.60;;;;;;4955948;23;20500;-73
2022/08/29 10:32:29;;;;;;;2.53;1.30;;;27.50;81.50;;;;;;4941864;29;20287;-75
2022/08/29 10:35:01;;;;;;;2.10;1.20;;;27.60;83.60;;;;;;4934305;29;20269;-72
2022/08/29 10:37:35;;;;;;;3.33;1.50;;;27.80;80.40;;;;;;4950210;29;20207;-75
2022/08/29 10:40:29;;;;;;;2.70;1.40;;;27.90;81.40;;;;;;4953218;29;20212;-75
2022/08/29 10:43:04;;;;;;;2.47;1.58;;;28.00;77.50;;;;;;4943269;29;20216;-75
2022/08/29 10:45:57;;;;;;;2.17;1.42;;;28.10;77.00;;;;;;4952553;29;20197;-75
2022/08/29 10:48:38;;;;;;;3.38;1.50;;;28.20;74.20;;;;;;4966449;29;20228;-75
2022/08/29 10:51:16;;;;;;;2.25;1.55;;;28.20;72.50;;;;;;4952858;29;20173;-76
2022/08/29 10:53:51;;;;;;;2.88;1.33;;;28.20;71.80;;;;;;4950005;29;20217;-73
2022/08/29 10:56:32;;;;;;;2.67;1.30;;;28.30;73.30;;;;;;4933368;29;20474;-74
2022/08/29 10:59:25;;;;;;;2.95;1.35;;;28.30;72.10;;;;;;4934168;29;20192;-75
2022/08/29 11:01:54;;;;;;;1.80;1.20;;;28.40;71.50;;;;;;4944011;29;20214;-73
2022/08/29 11:04:26;;;;;;;1.70;1.27;;;28.40;74.40;;;;;;4967677;29;20208;-72
2022/08/29 11:07:27;;;;;;;2.72;1.40;;;28.40;71.80;;;;;;4967374;29;20260;-73
2022/08/29 11:10:08;;;;;;;2.35;1.30;;;28.30;70.30;;;;;;4961833;29;20193;-72
2022/08/29 11:12:58;;;;;;;2.28;1.60;;;28.30;70.90;;;;;;4950036;29;20197;-75
2022/08/29 11:15:45;;;;;;;2.63;1.42;;;28.20;68.80;;;;;;4949161;29;20182;-74
2022/08/29 11:18:33;;;;;;;2.33;1.42;;;28.20;68.30;;;;;;4948694;29;20225;-74
2022/08/29 11:21:12;;;;;;;3.28;1.30;;;28.30;69.60;;;;;;4955096;29;20181;-75
2022/08/29 11:23:41;;;;;;;1.60;1.30;;;28.20;69.70;;;;;;4954991;29;20201;-74
2022/08/29 11:26:33;;;;;;;1.83;1.20;;;28.20;70.50;;;;;;4972876;29;20265;-75
2022/08/29 11:29:29;;;;;;;3.78;1.50;;;28.20;68.50;;;;;;4945649;28;20209;-75
2022/08/29 11:31:58;;;;;;;2.63;1.38;;;28.30;68.60;;;;;;4965943;29;20196;-74
2022/08/29 11:34:51;;;;;;;4.43;1.65;;;28.50;70.10;;;;;;4953239;29;20204;-74
2022/08/29 11:37:31;;;;;;;2.95;1.13;;;28.60;68.50;;;;;;4960715;28;20189;-76
2022/08/29 11:40:18;;;;;;;2.22;1.50;;;28.80;67.90;;;;;;4969511;29;20201;-70
2022/08/29 11:42:49;;;;;;;2.75;1.35;;;28.80;68.70;;;;;;4956408;29;20181;-75
2022/08/29 11:45:24;;;;;;;3.90;1.48;;;28.80;66.60;;;;;;4948126;29;20202;-74
2022/08/29 11:47:56;;;;;;;1.85;1.33;;;28.90;65.80;;;;;;4969181;28;20207;-75
2022/08/29 11:50:32;;;;;;;2.08;1.33;;;28.90;66.20;;;;;;4953323;29;20181;-75
2022/08/29 11:53:13;;;;;;;1.83;1.20;;;28.90;67.60;;;;;;4951323;29;20173;-74
2022/08/29 11:55:41;;;;;;;2.15;1.38;;;28.90;65.50;;;;;;4955327;29;20192;-75
2022/08/29 11:58:26;;;;;;;1.50;1.13;;;29.00;66.10;;;;;;4953452;29;20201;-75
2022/08/29 12:00:54;;;;;;;1.88;1.27;;;29.00;65.70;;;;;;4954985;29;20227;-75
2022/08/29 12:03:31;;;;;;;2.50;1.20;;;28.90;65.00;;;;;;4961747;29;20200;-75
2022/08/29 12:06:11;;;;;;;3.65;1.50;;;28.90;62.90;;;;;;4953751;29;20194;-76
2022/08/29 12:09:01;;;;;;;2.22;1.35;;;28.90;61.50;;;;;;4947869;29;20197;-76
2022/08/29 12:12:02;;;;;;;2.03;1.33;;;28.90;62.10;;;;;;4956188;29;20184;-75
2022/08/29 12:14:42;;;;;;;1.77;1.17;;;28.80;62.00;;;;;;4953100;29;20272;-76
2022/08/29 12:17:26;;;;;;;1.75;1.30;;;28.90;62.10;;;;;;4944068;29;20233;-74
2022/08/29 12:20:03;;;;;;;1.60;1.13;;;29.00;61.10;;;;;;4952684;29;20221;-69
2022/08/29 12:22:47;;;;;;;4.55;1.75;;;29.00;62.60;;;;;;4961444;29;20180;-75
2022/08/29 12:26:04;;;;;;;2.63;1.42;;;29.10;61.20;;;;;;4955756;29;20200;-73
2022/08/29 12:28:36;;;;;;;1.85;1.08;;;29.20;61.50;;;;;;4939729;29;20193;-77
2022/08/29 12:31:20;;;;;;;1.65;1.10;;;29.30;62.50;;;;;;4955756;29;20189;-74
2022/08/29 12:34:01;;;;;;;3.05;1.67;;;29.40;61.10;;;;;;4954469;29;20169;-74
2022/08/29 12:36:50;;;;;;;1.77;1.42;;;29.50;61.90;;;;;;4954677;29;20174;-70
2022/08/29 12:39:22;;;;;;;1.30;1.00;;;29.50;60.30;;;;;;4955264;29;20177;-74
2022/08/29 12:42:06;;;;;;;2.80;1.35;;;29.50;60.60;;;;;;4955109;29;20205;-73
2022/08/29 12:44:46;;;;;;;3.97;1.58;;;29.50;60.20;;;;;;4954045;29;20193;-76
2022/08/29 12:47:22;;;;;;;2.58;1.35;;;29.70;59.90;;;;;;4972383;29;20176;-76
2022/08/29 12:49:54;;;;;;;3.55;1.33;;;29.90;59.70;;;;;;4954313;29;20264;-76
2022/08/29 12:52:30;;;;;;;2.33;1.27;;;30.00;59.10;;;;;;4951645;29;20174;-76
2022/08/29 12:54:58;;;;;;;3.10;1.20;;;30.10;57.70;;;;;;4964607;29;20287;-74
2022/08/29 12:57:35;;;;;;;2.00;1.30;;;30.10;58.40;;;;;;4953096;29;20175;-73
2022/08/29 13:00:04;;;;;;;4.00;1.55;;;30.10;57.60;;;;;;4953217;29;20201;-76
2022/08/29 13:02:36;;;;;;;2.17;1.38;;;30.00;56.30;;;;;;4953547;29;20204;-73
2022/08/29 13:05:16;;;;;;;1.58;1.20;;;29.90;56.20;;;;;;4954372;29;20201;-76
2022/08/29 13:07:56;;;;;;;2.13;1.50;;;29.90;57.20;;;;;;4954260;29;20183;-76
2022/08/29 13:10:22;;;;;;;1.73;1.20;;;29.90;55.50;;;;;;4956386;29;20189;-74
2022/08/29 13:12:48;;;;;;;1.50;1.15;;;29.90;56.90;;;;;;4953755;29;20225;-75
2022/08/29 13:15:25;;;;;;;1.92;1.30;;;29.90;56.90;;;;;;4971001;29;20169;-77